sensor_id;sensor_type;location;lat;lon;timestamp;P1;durP1;ratioP1;P2;durP2;ratioP2
18435;SDS011;9346;52.006;4.720;2022-11-20T00:01:19;10.10;;;4.93;;
18435;SDS011;9346;52.006;4.720;2022-11-20T00:03:47;11.57;;;6.47;;
18435;SDS011;9346;52.006;4.720;2022-11-20T00:06:15;13.23;;;5.67;;
18435;SDS011;9346;52.006;4.720;2022-11-20T00:08:44;7.90;;;5.20;;
18435;SDS011;9346;52.006;4.720;2022-11-20T00:11:12;8.30;;;5.30;;
18435;SDS011;9346;52.006;4.720;2022-11-20T00:13:42;11.70;;;5.63;;
18435;SDS011;9346;52.006;4.720;2022-11-20T00:16:09;10.60;;;5.43;;
18435;SDS011;9346;52.006;4.720;2022-11-20T00:18:38;13.43;;;5.93;;
18435;SDS011;9346;52.006;4.720;2022-11-20T00:21:07;11.90;;;5.17;;
18435;SDS011;9346;52.006;4.720;2022-11-20T00:23:38;10.93;;;6.03;;
18435;SDS011;9346;52.006;4.720;2022-11-20T00:26:05;10.70;;;5.80;;
18435;SDS011;9346;52.006;4.720;2022-11-20T00:28:33;13.90;;;6.67;;
18435;SDS011;9346;52.006;4.720;2022-11-20T00:31:04;9.87;;;6.13;;
18435;SDS011;9346;52.006;4.720;2022-11-20T00:33:33;10.23;;;5.77;;
18435;SDS011;9346;52.006;4.720;2022-11-20T00:36:00;7.17;;;5.60;;
18435;SDS011;9346;52.006;4.720;2022-11-20T00:38:27;9.70;;;5.43;;
18435;SDS011;9346;52.006;4.720;2022-11-20T00:40:55;10.03;;;5.30;;
18435;SDS011;9346;52.006;4.720;2022-11-20T00:43:23;9.57;;;5.23;;
18435;SDS011;9346;52.006;4.720;2022-11-20T00:45:50;10.50;;;5.90;;
18435;SDS011;9346;52.006;4.720;2022-11-20T00:48:18;12.67;;;5.73;;
18435;SDS011;9346;52.006;4.720;2022-11-20T00:50:46;6.83;;;5.13;;
18435;SDS011;9346;52.006;4.720;2022-11-20T00:53:13;13.37;;;5.97;;
18435;SDS011;9346;52.006;4.720;2022-11-20T00:55:40;12.37;;;5.63;;
18435;SDS011;9346;52.006;4.720;2022-11-20T00:58:07;10.77;;;5.43;;
18435;SDS011;9346;52.006;4.720;2022-11-20T01:00:34;11.77;;;5.67;;
18435;SDS011;9346;52.006;4.720;2022-11-20T01:03:01;10.83;;;5.60;;
18435;SDS011;9346;52.006;4.720;2022-11-20T01:05:33;11.17;;;4.90;;
18435;SDS011;9346;52.006;4.720;2022-11-20T01:08:01;11.37;;;5.53;;
18435;SDS011;9346;52.006;4.720;2022-11-20T01:10:28;11.93;;;6.07;;
18435;SDS011;9346;52.006;4.720;2022-11-20T01:12:56;13.20;;;5.57;;
18435;SDS011;9346;52.006;4.720;2022-11-20T01:15:36;20.73;;;5.40;;
18435;SDS011;9346;52.006;4.720;2022-11-20T01:18:03;12.67;;;7.23;;
18435;SDS011;9346;52.006;4.720;2022-11-20T01:20:32;13.97;;;5.70;;
18435;SDS011;9346;52.006;4.720;2022-11-20T01:23:01;9.13;;;5.30;;
18435;SDS011;9346;52.006;4.720;2022-11-20T01:25:27;11.07;;;5.37;;
18435;SDS011;9346;52.006;4.720;2022-11-20T01:27:54;15.73;;;7.10;;
18435;SDS011;9346;52.006;4.720;2022-11-20T01:30:22;13.27;;;6.80;;
18435;SDS011;9346;52.006;4.720;2022-11-20T01:32:48;10.63;;;6.03;;
18435;SDS011;9346;52.006;4.720;2022-11-20T01:35:16;19.93;;;5.63;;
18435;SDS011;9346;52.006;4.720;2022-11-20T01:37:45;12.27;;;6.00;;
18435;SDS011;9346;52.006;4.720;2022-11-20T01:40:12;10.90;;;5.50;;
18435;SDS011;9346;52.006;4.720;2022-11-20T01:42:43;12.13;;;6.30;;
18435;SDS011;9346;52.006;4.720;2022-11-20T01:45:46;10.20;;;5.30;;
18435;SDS011;9346;52.006;4.720;2022-11-20T01:48:23;10.57;;;5.80;;
18435;SDS011;9346;52.006;4.720;2022-11-20T01:50:53;9.53;;;6.17;;
18435;SDS011;9346;52.006;4.720;2022-11-20T01:53:23;10.03;;;5.33;;
18435;SDS011;9346;52.006;4.720;2022-11-20T01:55:55;12.60;;;6.23;;
18435;SDS011;9346;52.006;4.720;2022-11-20T01:58:25;7.83;;;5.40;;
18435;SDS011;9346;52.006;4.720;2022-11-20T02:00:56;12.53;;;5.70;;
18435;SDS011;9346;52.006;4.720;2022-11-20T02:03:23;10.63;;;5.67;;
18435;SDS011;9346;52.006;4.720;2022-11-20T02:05:51;9.37;;;5.20;;
18435;SDS011;9346;52.006;4.720;2022-11-20T02:08:24;10.73;;;5.53;;
18435;SDS011;9346;52.006;4.720;2022-11-20T02:10:51;11.60;;;6.00;;
18435;SDS011;9346;52.006;4.720;2022-11-20T02:13:17;9.70;;;5.60;;
18435;SDS011;9346;52.006;4.720;2022-11-20T02:16:02;13.73;;;6.23;;
18435;SDS011;9346;52.006;4.720;2022-11-20T02:18:30;9.50;;;5.20;;
18435;SDS011;9346;52.006;4.720;2022-11-20T02:20:59;11.07;;;5.27;;
18435;SDS011;9346;52.006;4.720;2022-11-20T02:23:36;12.93;;;6.10;;
18435;SDS011;9346;52.006;4.720;2022-11-20T02:26:08;9.67;;;6.40;;
18435;SDS011;9346;52.006;4.720;2022-11-20T02:28:39;13.00;;;5.67;;
18435;SDS011;9346;52.006;4.720;2022-11-20T02:31:06;16.37;;;5.63;;
18435;SDS011;9346;52.006;4.720;2022-11-20T02:33:33;8.73;;;5.07;;
18435;SDS011;9346;52.006;4.720;2022-11-20T02:36:00;11.33;;;6.07;;
18435;SDS011;9346;52.006;4.720;2022-11-20T02:38:27;12.63;;;6.60;;
18435;SDS011;9346;52.006;4.720;2022-11-20T02:40:53;17.60;;;7.43;;
18435;SDS011;9346;52.006;4.720;2022-11-20T02:43:22;11.27;;;5.33;;
18435;SDS011;9346;52.006;4.720;2022-11-20T02:45:49;9.83;;;5.83;;
18435;SDS011;9346;52.006;4.720;2022-11-20T02:48:16;14.83;;;6.20;;
18435;SDS011;9346;52.006;4.720;2022-11-20T02:50:43;12.77;;;5.50;;
18435;SDS011;9346;52.006;4.720;2022-11-20T02:53:10;13.13;;;6.17;;
18435;SDS011;9346;52.006;4.720;2022-11-20T02:55:37;10.50;;;5.87;;
18435;SDS011;9346;52.006;4.720;2022-11-20T02:58:04;9.93;;;5.20;;
18435;SDS011;9346;52.006;4.720;2022-11-20T03:00:33;10.43;;;5.83;;
18435;SDS011;9346;52.006;4.720;2022-11-20T03:03:01;14.60;;;7.27;;
18435;SDS011;9346;52.006;4.720;2022-11-20T03:05:28;7.27;;;5.13;;
18435;SDS011;9346;52.006;4.720;2022-11-20T03:07:55;11.13;;;4.93;;
18435;SDS011;9346;52.006;4.720;2022-11-20T03:10:21;13.00;;;6.30;;
18435;SDS011;9346;52.006;4.720;2022-11-20T03:12:52;19.07;;;6.33;;
18435;SDS011;9346;52.006;4.720;2022-11-20T03:15:19;10.00;;;6.57;;
18435;SDS011;9346;52.006;4.720;2022-11-20T03:17:47;13.03;;;6.47;;
18435;SDS011;9346;52.006;4.720;2022-11-20T03:20:14;10.83;;;5.43;;
18435;SDS011;9346;52.006;4.720;2022-11-20T03:22:41;9.07;;;5.67;;
18435;SDS011;9346;52.006;4.720;2022-11-20T03:25:08;11.63;;;6.43;;
18435;SDS011;9346;52.006;4.720;2022-11-20T03:27:35;10.70;;;6.53;;
18435;SDS011;9346;52.006;4.720;2022-11-20T03:30:02;11.43;;;6.00;;
18435;SDS011;9346;52.006;4.720;2022-11-20T03:32:30;10.33;;;5.87;;
18435;SDS011;9346;52.006;4.720;2022-11-20T03:34:59;12.50;;;6.00;;
18435;SDS011;9346;52.006;4.720;2022-11-20T03:37:26;8.50;;;3.77;;
18435;SDS011;9346;52.006;4.720;2022-11-20T03:39:53;12.00;;;5.20;;
18435;SDS011;9346;52.006;4.720;2022-11-20T03:42:20;7.50;;;5.53;;
18435;SDS011;9346;52.006;4.720;2022-11-20T03:45:04;10.83;;;5.17;;
18435;SDS011;9346;52.006;4.720;2022-11-20T03:47:32;12.03;;;6.13;;
18435;SDS011;9346;52.006;4.720;2022-11-20T03:50:01;10.80;;;5.80;;
18435;SDS011;9346;52.006;4.720;2022-11-20T03:52:29;11.63;;;6.07;;
18435;SDS011;9346;52.006;4.720;2022-11-20T03:54:56;13.37;;;6.63;;
18435;SDS011;9346;52.006;4.720;2022-11-20T03:57:23;10.37;;;5.57;;
18435;SDS011;9346;52.006;4.720;2022-11-20T03:59:50;11.13;;;5.90;;
18435;SDS011;9346;52.006;4.720;2022-11-20T04:02:17;12.07;;;6.30;;
18435;SDS011;9346;52.006;4.720;2022-11-20T04:04:43;10.60;;;6.77;;
18435;SDS011;9346;52.006;4.720;2022-11-20T04:07:13;13.27;;;5.90;;
18435;SDS011;9346;52.006;4.720;2022-11-20T04:09:40;11.47;;;5.90;;
18435;SDS011;9346;52.006;4.720;2022-11-20T04:12:07;11.87;;;6.60;;
18435;SDS011;9346;52.006;4.720;2022-11-20T04:14:34;11.63;;;4.97;;
18435;SDS011;9346;52.006;4.720;2022-11-20T04:17:01;10.97;;;5.23;;
18435;SDS011;9346;52.006;4.720;2022-11-20T04:19:28;10.60;;;4.93;;
18435;SDS011;9346;52.006;4.720;2022-11-20T04:21:54;9.43;;;5.77;;
18435;SDS011;9346;52.006;4.720;2022-11-20T04:24:23;17.00;;;7.17;;
18435;SDS011;9346;52.006;4.720;2022-11-20T04:26:50;12.37;;;6.33;;
18435;SDS011;9346;52.006;4.720;2022-11-20T04:29:17;8.47;;;4.73;;
18435;SDS011;9346;52.006;4.720;2022-11-20T04:31:43;11.50;;;6.03;;
18435;SDS011;9346;52.006;4.720;2022-11-20T04:34:11;9.37;;;5.03;;
18435;SDS011;9346;52.006;4.720;2022-11-20T04:36:38;8.10;;;6.23;;
18435;SDS011;9346;52.006;4.720;2022-11-20T04:39:05;10.93;;;6.00;;
18435;SDS011;9346;52.006;4.720;2022-11-20T04:41:34;11.80;;;5.37;;
18435;SDS011;9346;52.006;4.720;2022-11-20T04:44:03;9.57;;;5.13;;
18435;SDS011;9346;52.006;4.720;2022-11-20T04:46:33;11.70;;;5.47;;
18435;SDS011;9346;52.006;4.720;2022-11-20T04:49:02;12.33;;;5.70;;
18435;SDS011;9346;52.006;4.720;2022-11-20T04:51:29;9.13;;;5.40;;
18435;SDS011;9346;52.006;4.720;2022-11-20T04:53:56;10.10;;;5.83;;
18435;SDS011;9346;52.006;4.720;2022-11-20T04:56:24;11.93;;;5.40;;
18435;SDS011;9346;52.006;4.720;2022-11-20T04:58:52;16.93;;;6.27;;
18435;SDS011;9346;52.006;4.720;2022-11-20T05:01:20;9.63;;;5.20;;
18435;SDS011;9346;52.006;4.720;2022-11-20T05:03:48;14.77;;;7.60;;
18435;SDS011;9346;52.006;4.720;2022-11-20T05:06:16;10.93;;;5.33;;
18435;SDS011;9346;52.006;4.720;2022-11-20T05:08:44;9.07;;;5.20;;
18435;SDS011;9346;52.006;4.720;2022-11-20T05:11:12;11.73;;;5.33;;
18435;SDS011;9346;52.006;4.720;2022-11-20T05:13:40;12.53;;;6.13;;
18435;SDS011;9346;52.006;4.720;2022-11-20T05:16:10;12.30;;;6.47;;
18435;SDS011;9346;52.006;4.720;2022-11-20T05:18:38;13.37;;;5.93;;
18435;SDS011;9346;52.006;4.720;2022-11-20T05:21:06;16.17;;;5.83;;
18435;SDS011;9346;52.006;4.720;2022-11-20T05:23:35;15.03;;;5.13;;
18435;SDS011;9346;52.006;4.720;2022-11-20T05:26:02;11.20;;;6.17;;
18435;SDS011;9346;52.006;4.720;2022-11-20T05:28:30;11.13;;;6.23;;
18435;SDS011;9346;52.006;4.720;2022-11-20T05:31:03;12.07;;;5.33;;
18435;SDS011;9346;52.006;4.720;2022-11-20T05:33:32;9.63;;;4.67;;
18435;SDS011;9346;52.006;4.720;2022-11-20T05:36:00;11.23;;;6.10;;
18435;SDS011;9346;52.006;4.720;2022-11-20T05:38:27;10.53;;;5.80;;
18435;SDS011;9346;52.006;4.720;2022-11-20T05:40:54;11.70;;;6.17;;
18435;SDS011;9346;52.006;4.720;2022-11-20T05:43:21;10.23;;;6.00;;
18435;SDS011;9346;52.006;4.720;2022-11-20T05:45:52;10.10;;;6.43;;
18435;SDS011;9346;52.006;4.720;2022-11-20T05:48:19;13.83;;;6.47;;
18435;SDS011;9346;52.006;4.720;2022-11-20T05:50:48;11.63;;;5.73;;
18435;SDS011;9346;52.006;4.720;2022-11-20T05:53:15;11.30;;;5.77;;
18435;SDS011;9346;52.006;4.720;2022-11-20T05:55:42;11.93;;;5.33;;
18435;SDS011;9346;52.006;4.720;2022-11-20T05:58:09;11.90;;;6.27;;
18435;SDS011;9346;52.006;4.720;2022-11-20T06:00:36;9.17;;;5.03;;
18435;SDS011;9346;52.006;4.720;2022-11-20T06:03:03;10.57;;;6.63;;
18435;SDS011;9346;52.006;4.720;2022-11-20T06:05:30;11.47;;;5.73;;
18435;SDS011;9346;52.006;4.720;2022-11-20T06:08:01;11.30;;;6.63;;
18435;SDS011;9346;52.006;4.720;2022-11-20T06:10:28;11.63;;;6.23;;
18435;SDS011;9346;52.006;4.720;2022-11-20T06:12:56;14.13;;;6.70;;
18435;SDS011;9346;52.006;4.720;2022-11-20T06:15:23;10.07;;;6.37;;
18435;SDS011;9346;52.006;4.720;2022-11-20T06:17:51;14.00;;;7.23;;
18435;SDS011;9346;52.006;4.720;2022-11-20T06:20:18;13.10;;;6.27;;
18435;SDS011;9346;52.006;4.720;2022-11-20T06:22:45;12.70;;;5.67;;
18435;SDS011;9346;52.006;4.720;2022-11-20T06:25:14;12.30;;;6.33;;
18435;SDS011;9346;52.006;4.720;2022-11-20T06:27:41;7.17;;;5.07;;
18435;SDS011;9346;52.006;4.720;2022-11-20T06:30:09;8.50;;;5.77;;
18435;SDS011;9346;52.006;4.720;2022-11-20T06:32:36;11.17;;;5.30;;
18435;SDS011;9346;52.006;4.720;2022-11-20T06:35:04;5.50;;;4.03;;
18435;SDS011;9346;52.006;4.720;2022-11-20T06:37:31;10.20;;;6.03;;
18435;SDS011;9346;52.006;4.720;2022-11-20T06:39:58;10.30;;;5.57;;
18435;SDS011;9346;52.006;4.720;2022-11-20T06:42:27;14.63;;;5.67;;
18435;SDS011;9346;52.006;4.720;2022-11-20T06:44:54;7.83;;;5.43;;
18435;SDS011;9346;52.006;4.720;2022-11-20T06:47:21;12.97;;;5.00;;
18435;SDS011;9346;52.006;4.720;2022-11-20T06:49:48;11.10;;;5.77;;
18435;SDS011;9346;52.006;4.720;2022-11-20T06:52:15;13.07;;;6.27;;
18435;SDS011;9346;52.006;4.720;2022-11-20T06:54:42;15.83;;;7.77;;
18435;SDS011;9346;52.006;4.720;2022-11-20T06:57:09;14.73;;;7.10;;
18435;SDS011;9346;52.006;4.720;2022-11-20T06:59:37;11.27;;;5.67;;
18435;SDS011;9346;52.006;4.720;2022-11-20T07:02:04;13.03;;;6.70;;
18435;SDS011;9346;52.006;4.720;2022-11-20T07:04:32;10.37;;;6.23;;
18435;SDS011;9346;52.006;4.720;2022-11-20T07:06:59;12.03;;;6.57;;
18435;SDS011;9346;52.006;4.720;2022-11-20T07:09:26;13.60;;;6.63;;
18435;SDS011;9346;52.006;4.720;2022-11-20T07:11:52;15.60;;;6.57;;
18435;SDS011;9346;52.006;4.720;2022-11-20T07:14:19;7.80;;;5.17;;
18435;SDS011;9346;52.006;4.720;2022-11-20T07:16:48;13.33;;;6.37;;
18435;SDS011;9346;52.006;4.720;2022-11-20T07:19:15;11.20;;;5.70;;
18435;SDS011;9346;52.006;4.720;2022-11-20T07:21:42;12.03;;;7.27;;
18435;SDS011;9346;52.006;4.720;2022-11-20T07:24:09;16.60;;;7.43;;
18435;SDS011;9346;52.006;4.720;2022-11-20T07:26:35;12.33;;;6.00;;
18435;SDS011;9346;52.006;4.720;2022-11-20T07:29:02;12.17;;;6.73;;
18435;SDS011;9346;52.006;4.720;2022-11-20T07:31:29;12.40;;;6.87;;
18435;SDS011;9346;52.006;4.720;2022-11-20T07:33:58;10.90;;;7.20;;
18435;SDS011;9346;52.006;4.720;2022-11-20T07:36:25;10.00;;;5.37;;
18435;SDS011;9346;52.006;4.720;2022-11-20T07:38:52;11.40;;;5.70;;
18435;SDS011;9346;52.006;4.720;2022-11-20T07:41:19;11.90;;;5.67;;
18435;SDS011;9346;52.006;4.720;2022-11-20T07:43:46;9.97;;;6.37;;
18435;SDS011;9346;52.006;4.720;2022-11-20T07:46:13;12.47;;;7.17;;
18435;SDS011;9346;52.006;4.720;2022-11-20T07:48:40;12.87;;;6.57;;
18435;SDS011;9346;52.006;4.720;2022-11-20T07:51:08;15.07;;;6.90;;
18435;SDS011;9346;52.006;4.720;2022-11-20T07:53:35;12.50;;;7.50;;
18435;SDS011;9346;52.006;4.720;2022-11-20T07:56:04;13.60;;;6.77;;
18435;SDS011;9346;52.006;4.720;2022-11-20T07:58:32;11.80;;;7.90;;
18435;SDS011;9346;52.006;4.720;2022-11-20T08:01:02;15.17;;;7.50;;
18435;SDS011;9346;52.006;4.720;2022-11-20T08:03:29;13.17;;;7.30;;
18435;SDS011;9346;52.006;4.720;2022-11-20T08:05:58;10.80;;;6.60;;
18435;SDS011;9346;52.006;4.720;2022-11-20T08:08:27;12.63;;;7.70;;
18435;SDS011;9346;52.006;4.720;2022-11-20T08:10:56;13.93;;;7.73;;
18435;SDS011;9346;52.006;4.720;2022-11-20T08:13:43;12.83;;;6.80;;
18435;SDS011;9346;52.006;4.720;2022-11-20T08:16:28;19.43;;;7.73;;
18435;SDS011;9346;52.006;4.720;2022-11-20T08:18:56;9.73;;;7.53;;
18435;SDS011;9346;52.006;4.720;2022-11-20T08:21:23;16.53;;;7.80;;
18435;SDS011;9346;52.006;4.720;2022-11-20T08:23:52;13.30;;;8.20;;
18435;SDS011;9346;52.006;4.720;2022-11-20T08:26:20;10.77;;;6.87;;
18435;SDS011;9346;52.006;4.720;2022-11-20T08:28:48;20.47;;;8.77;;
18435;SDS011;9346;52.006;4.720;2022-11-20T08:31:15;15.50;;;8.43;;
18435;SDS011;9346;52.006;4.720;2022-11-20T08:33:42;16.10;;;8.23;;
18435;SDS011;9346;52.006;4.720;2022-11-20T08:36:10;14.73;;;8.77;;
18435;SDS011;9346;52.006;4.720;2022-11-20T08:38:37;15.73;;;8.33;;
18435;SDS011;9346;52.006;4.720;2022-11-20T08:41:06;10.87;;;6.80;;
18435;SDS011;9346;52.006;4.720;2022-11-20T08:43:52;14.40;;;8.10;;
18435;SDS011;9346;52.006;4.720;2022-11-20T08:46:21;17.77;;;9.80;;
18435;SDS011;9346;52.006;4.720;2022-11-20T08:48:49;19.33;;;10.53;;
18435;SDS011;9346;52.006;4.720;2022-11-20T08:51:16;16.67;;;9.47;;
18435;SDS011;9346;52.006;4.720;2022-11-20T08:53:44;21.40;;;8.80;;
18435;SDS011;9346;52.006;4.720;2022-11-20T08:56:13;17.43;;;8.37;;
18435;SDS011;9346;52.006;4.720;2022-11-20T08:58:39;12.20;;;7.43;;
18435;SDS011;9346;52.006;4.720;2022-11-20T09:01:07;15.07;;;7.70;;
18435;SDS011;9346;52.006;4.720;2022-11-20T09:03:33;17.93;;;8.23;;
18435;SDS011;9346;52.006;4.720;2022-11-20T09:06:01;15.40;;;9.73;;
18435;SDS011;9346;52.006;4.720;2022-11-20T09:08:30;25.73;;;8.80;;
18435;SDS011;9346;52.006;4.720;2022-11-20T09:10:57;20.10;;;11.03;;
18435;SDS011;9346;52.006;4.720;2022-11-20T09:13:28;25.00;;;11.73;;
18435;SDS011;9346;52.006;4.720;2022-11-20T09:15:55;18.87;;;7.83;;
18435;SDS011;9346;52.006;4.720;2022-11-20T09:18:24;23.50;;;9.63;;
18435;SDS011;9346;52.006;4.720;2022-11-20T09:20:55;13.40;;;8.67;;
18435;SDS011;9346;52.006;4.720;2022-11-20T09:23:22;21.93;;;9.47;;
18435;SDS011;9346;52.006;4.720;2022-11-20T09:25:50;16.07;;;9.30;;
18435;SDS011;9346;52.006;4.720;2022-11-20T09:28:17;16.83;;;9.80;;
18435;SDS011;9346;52.006;4.720;2022-11-20T09:30:47;22.47;;;10.13;;
18435;SDS011;9346;52.006;4.720;2022-11-20T09:33:14;18.97;;;8.63;;
18435;SDS011;9346;52.006;4.720;2022-11-20T09:35:41;21.53;;;10.83;;
18435;SDS011;9346;52.006;4.720;2022-11-20T09:38:10;17.63;;;9.20;;
18435;SDS011;9346;52.006;4.720;2022-11-20T09:40:38;16.30;;;8.90;;
18435;SDS011;9346;52.006;4.720;2022-11-20T09:43:10;21.27;;;10.30;;
18435;SDS011;9346;52.006;4.720;2022-11-20T09:45:46;15.80;;;9.70;;
18435;SDS011;9346;52.006;4.720;2022-11-20T09:48:47;20.60;;;9.60;;
18435;SDS011;9346;52.006;4.720;2022-11-20T09:51:29;19.07;;;9.50;;
18435;SDS011;9346;52.006;4.720;2022-11-20T09:54:07;19.17;;;10.00;;
18435;SDS011;9346;52.006;4.720;2022-11-20T09:56:42;17.13;;;9.33;;
18435;SDS011;9346;52.006;4.720;2022-11-20T09:59:16;21.03;;;10.83;;
18435;SDS011;9346;52.006;4.720;2022-11-20T10:04:47;16.50;;;9.53;;
18435;SDS011;9346;52.006;4.720;2022-11-20T10:07:20;19.03;;;9.33;;
18435;SDS011;9346;52.006;4.720;2022-11-20T10:09:51;19.37;;;9.97;;
18435;SDS011;9346;52.006;4.720;2022-11-20T10:12:22;19.60;;;10.77;;
18435;SDS011;9346;52.006;4.720;2022-11-20T10:14:59;20.60;;;9.97;;
18435;SDS011;9346;52.006;4.720;2022-11-20T10:17:58;17.83;;;10.63;;
18435;SDS011;9346;52.006;4.720;2022-11-20T10:20:40;25.00;;;11.70;;
18435;SDS011;9346;52.006;4.720;2022-11-20T10:23:17;19.73;;;9.57;;
18435;SDS011;9346;52.006;4.720;2022-11-20T10:25:54;22.60;;;10.90;;
18435;SDS011;9346;52.006;4.720;2022-11-20T10:28:34;22.80;;;12.47;;
18435;SDS011;9346;52.006;4.720;2022-11-20T10:31:14;25.07;;;12.03;;
18435;SDS011;9346;52.006;4.720;2022-11-20T10:33:55;18.20;;;10.03;;
18435;SDS011;9346;52.006;4.720;2022-11-20T10:36:28;19.53;;;9.63;;
18435;SDS011;9346;52.006;4.720;2022-11-20T10:39:03;19.23;;;11.97;;
18435;SDS011;9346;52.006;4.720;2022-11-20T10:41:34;23.03;;;11.40;;
18435;SDS011;9346;52.006;4.720;2022-11-20T10:44:09;26.50;;;12.57;;
18435;SDS011;9346;52.006;4.720;2022-11-20T10:47:01;24.20;;;12.17;;
18435;SDS011;9346;52.006;4.720;2022-11-20T10:49:32;24.53;;;12.13;;
18435;SDS011;9346;52.006;4.720;2022-11-20T10:52:03;21.80;;;11.17;;
18435;SDS011;9346;52.006;4.720;2022-11-20T10:54:38;18.37;;;9.90;;
18435;SDS011;9346;52.006;4.720;2022-11-20T10:57:15;26.23;;;11.83;;
18435;SDS011;9346;52.006;4.720;2022-11-20T10:59:55;18.77;;;10.50;;
18435;SDS011;9346;52.006;4.720;2022-11-20T11:02:31;17.50;;;11.33;;
18435;SDS011;9346;52.006;4.720;2022-11-20T11:05:04;21.00;;;11.43;;
18435;SDS011;9346;52.006;4.720;2022-11-20T11:07:39;25.67;;;12.67;;
18435;SDS011;9346;52.006;4.720;2022-11-20T11:10:13;20.97;;;10.13;;
18435;SDS011;9346;52.006;4.720;2022-11-20T11:12:43;21.43;;;11.60;;
18435;SDS011;9346;52.006;4.720;2022-11-20T11:15:14;20.40;;;11.53;;
18435;SDS011;9346;52.006;4.720;2022-11-20T11:17:52;22.67;;;11.53;;
18435;SDS011;9346;52.006;4.720;2022-11-20T11:20:21;22.17;;;11.43;;
18435;SDS011;9346;52.006;4.720;2022-11-20T11:22:49;23.57;;;11.17;;
18435;SDS011;9346;52.006;4.720;2022-11-20T11:25:21;22.90;;;12.17;;
18435;SDS011;9346;52.006;4.720;2022-11-20T11:27:51;27.83;;;12.33;;
18435;SDS011;9346;52.006;4.720;2022-11-20T11:30:21;22.30;;;11.77;;
18435;SDS011;9346;52.006;4.720;2022-11-20T11:32:48;21.90;;;12.20;;
18435;SDS011;9346;52.006;4.720;2022-11-20T11:35:19;22.73;;;12.30;;
18435;SDS011;9346;52.006;4.720;2022-11-20T11:37:50;26.57;;;12.43;;
18435;SDS011;9346;52.006;4.720;2022-11-20T11:40:20;30.10;;;12.87;;
18435;SDS011;9346;52.006;4.720;2022-11-20T11:42:53;28.53;;;11.53;;
18435;SDS011;9346;52.006;4.720;2022-11-20T11:45:22;27.50;;;13.23;;
18435;SDS011;9346;52.006;4.720;2022-11-20T11:47:49;27.43;;;13.27;;
18435;SDS011;9346;52.006;4.720;2022-11-20T11:50:20;27.33;;;13.10;;
18435;SDS011;9346;52.006;4.720;2022-11-20T11:55:40;31.27;;;13.80;;
18435;SDS011;9346;52.006;4.720;2022-11-20T11:58:19;29.73;;;14.10;;
18435;SDS011;9346;52.006;4.720;2022-11-20T12:00:57;24.53;;;13.17;;
18435;SDS011;9346;52.006;4.720;2022-11-20T12:03:32;28.13;;;14.30;;
18435;SDS011;9346;52.006;4.720;2022-11-20T12:06:05;34.80;;;13.23;;
18435;SDS011;9346;52.006;4.720;2022-11-20T12:08:38;30.17;;;13.87;;
18435;SDS011;9346;52.006;4.720;2022-11-20T12:11:12;32.03;;;15.47;;
18435;SDS011;9346;52.006;4.720;2022-11-20T12:13:46;34.40;;;16.43;;
18435;SDS011;9346;52.006;4.720;2022-11-20T12:16:19;27.30;;;13.97;;
18435;SDS011;9346;52.006;4.720;2022-11-20T12:18:48;35.57;;;16.27;;
18435;SDS011;9346;52.006;4.720;2022-11-20T12:24:20;28.97;;;15.37;;
18435;SDS011;9346;52.006;4.720;2022-11-20T12:27:17;35.73;;;15.57;;
18435;SDS011;9346;52.006;4.720;2022-11-20T12:30:04;37.77;;;14.47;;
18435;SDS011;9346;52.006;4.720;2022-11-20T12:32:38;25.20;;;13.87;;
18435;SDS011;9346;52.006;4.720;2022-11-20T12:41:36;30.80;;;15.27;;
18435;SDS011;9346;52.006;4.720;2022-11-20T12:44:34;29.23;;;14.30;;
18435;SDS011;9346;52.006;4.720;2022-11-20T12:47:33;36.23;;;16.80;;
18435;SDS011;9346;52.006;4.720;2022-11-20T12:50:15;31.60;;;15.20;;
18435;SDS011;9346;52.006;4.720;2022-11-20T12:52:50;34.33;;;15.67;;
18435;SDS011;9346;52.006;4.720;2022-11-20T12:55:30;31.67;;;15.33;;
18435;SDS011;9346;52.006;4.720;2022-11-20T12:58:05;35.07;;;15.87;;
18435;SDS011;9346;52.006;4.720;2022-11-20T13:00:40;36.37;;;15.90;;
18435;SDS011;9346;52.006;4.720;2022-11-20T13:03:34;36.10;;;14.57;;
18435;SDS011;9346;52.006;4.720;2022-11-20T13:06:12;27.30;;;13.77;;
18435;SDS011;9346;52.006;4.720;2022-11-20T13:08:42;36.67;;;14.47;;
18435;SDS011;9346;52.006;4.720;2022-11-20T13:11:16;32.63;;;15.93;;
18435;SDS011;9346;52.006;4.720;2022-11-20T13:13:58;38.80;;;15.27;;
18435;SDS011;9346;52.006;4.720;2022-11-20T13:16:36;33.00;;;15.70;;
18435;SDS011;9346;52.006;4.720;2022-11-20T13:19:09;38.47;;;16.73;;
18435;SDS011;9346;52.006;4.720;2022-11-20T13:21:42;38.73;;;15.00;;
18435;SDS011;9346;52.006;4.720;2022-11-20T13:24:20;35.20;;;15.40;;
18435;SDS011;9346;52.006;4.720;2022-11-20T13:29:58;37.13;;;16.67;;
18435;SDS011;9346;52.006;4.720;2022-11-20T13:32:28;30.37;;;14.77;;
18435;SDS011;9346;52.006;4.720;2022-11-20T13:34:58;33.33;;;14.47;;
18435;SDS011;9346;52.006;4.720;2022-11-20T13:37:28;40.83;;;19.07;;
18435;SDS011;9346;52.006;4.720;2022-11-20T13:40:13;40.47;;;15.73;;
18435;SDS011;9346;52.006;4.720;2022-11-20T13:42:54;42.70;;;17.23;;
18435;SDS011;9346;52.006;4.720;2022-11-20T13:45:27;28.53;;;15.17;;
18435;SDS011;9346;52.006;4.720;2022-11-20T13:47:56;37.60;;;15.77;;
18435;SDS011;9346;52.006;4.720;2022-11-20T13:50:31;34.90;;;15.87;;
18435;SDS011;9346;52.006;4.720;2022-11-20T13:53:09;38.80;;;16.77;;
18435;SDS011;9346;52.006;4.720;2022-11-20T13:55:54;35.73;;;16.17;;
18435;SDS011;9346;52.006;4.720;2022-11-20T13:58:29;36.97;;;15.93;;
18435;SDS011;9346;52.006;4.720;2022-11-20T14:01:14;36.90;;;17.10;;
18435;SDS011;9346;52.006;4.720;2022-11-20T14:03:43;35.87;;;16.53;;
18435;SDS011;9346;52.006;4.720;2022-11-20T14:06:11;36.77;;;17.87;;
18435;SDS011;9346;52.006;4.720;2022-11-20T14:08:42;40.07;;;16.53;;
18435;SDS011;9346;52.006;4.720;2022-11-20T14:11:14;40.90;;;17.90;;
18435;SDS011;9346;52.006;4.720;2022-11-20T14:16:31;38.90;;;17.63;;
18435;SDS011;9346;52.006;4.720;2022-11-20T14:19:17;37.97;;;17.30;;
18435;SDS011;9346;52.006;4.720;2022-11-20T14:21:52;42.37;;;17.10;;
18435;SDS011;9346;52.006;4.720;2022-11-20T14:24:20;50.33;;;17.87;;
18435;SDS011;9346;52.006;4.720;2022-11-20T14:26:49;47.60;;;17.63;;
18435;SDS011;9346;52.006;4.720;2022-11-20T14:29:19;41.37;;;17.67;;
18435;SDS011;9346;52.006;4.720;2022-11-20T14:31:52;50.83;;;18.97;;
18435;SDS011;9346;52.006;4.720;2022-11-20T14:34:21;42.80;;;18.03;;
18435;SDS011;9346;52.006;4.720;2022-11-20T14:36:50;58.27;;;19.10;;
18435;SDS011;9346;52.006;4.720;2022-11-20T14:39:22;49.83;;;18.50;;
18435;SDS011;9346;52.006;4.720;2022-11-20T14:41:57;49.43;;;19.43;;
18435;SDS011;9346;52.006;4.720;2022-11-20T14:44:27;48.07;;;18.17;;
18435;SDS011;9346;52.006;4.720;2022-11-20T14:46:57;52.60;;;18.87;;
18435;SDS011;9346;52.006;4.720;2022-11-20T14:49:26;56.57;;;21.27;;
18435;SDS011;9346;52.006;4.720;2022-11-20T14:51:59;42.40;;;18.80;;
18435;SDS011;9346;52.006;4.720;2022-11-20T14:54:27;42.40;;;18.93;;
18435;SDS011;9346;52.006;4.720;2022-11-20T14:56:55;40.97;;;18.60;;
18435;SDS011;9346;52.006;4.720;2022-11-20T14:59:24;47.47;;;20.30;;
18435;SDS011;9346;52.006;4.720;2022-11-20T15:01:59;41.60;;;19.47;;
18435;SDS011;9346;52.006;4.720;2022-11-20T15:04:27;45.23;;;20.73;;
18435;SDS011;9346;52.006;4.720;2022-11-20T15:06:55;54.03;;;21.93;;
18435;SDS011;9346;52.006;4.720;2022-11-20T15:09:23;46.80;;;20.23;;
18435;SDS011;9346;52.006;4.720;2022-11-20T15:11:52;47.60;;;19.33;;
18435;SDS011;9346;52.006;4.720;2022-11-20T15:14:21;46.53;;;19.10;;
18435;SDS011;9346;52.006;4.720;2022-11-20T15:16:49;38.77;;;18.73;;
18435;SDS011;9346;52.006;4.720;2022-11-20T15:19:19;38.17;;;18.80;;
18435;SDS011;9346;52.006;4.720;2022-11-20T15:21:48;43.50;;;18.70;;
18435;SDS011;9346;52.006;4.720;2022-11-20T15:24:15;41.87;;;18.77;;
18435;SDS011;9346;52.006;4.720;2022-11-20T15:26:42;46.53;;;18.93;;